Hadlock, Washington
Current Conditions -  °F | °C
As of 2:16 PM on Thursday 23 Oct 2014 (Local Time) from KNUW Reporting Station
Broken Clouds Broken Clouds  
Wind Chill: 58°   Ceiling: 9000
Heat Index: 58°   Visibility: 10mi
Dew Point: 49°   Wind: 12mph
Humidity: 72%   Direction: 170°S
Pressure: 29.79"   Gusts: NA
Location:  48.0288°N, 122.77°W
Report Text: KNUW 232116Z 17010KT 10SM SCT020 SCT035 BKN090 BKN200 14/09 A2979 RMK AO2 T01440094
Loading
Personal Weather Stations






























Interactive Weather Map
Tropical Storm Tracking
New forecast layout! Learn more

10-Day Weather Forecast

Advertisements
Track Severe Weather on mobile